Time;durP1;ratioP1;P1;durP2;ratioP2;P2;SDS_P1;SDS_P2;PMS_P1;PMS_P2;Temp;Humidity;BMP_temperature;BMP_pressure;BME280_temperature;BME280_humidity;BME280_pressure;Samples;Min_cycle;Max_cycle;Signal;HPM_P1;HPM_P2
2021/09/09 00:00:49;;;;;;;10.67;9.57;;;17.40;97.80;;;;;;5078292;28;20622;-77
2021/09/09 00:03:18;;;;;;;11.10;10.10;;;17.40;97.70;;;;;;5070497;28;20796;-78
2021/09/09 00:05:45;;;;;;;11.10;10.10;;;17.40;97.50;;;;;;5072492;28;21088;-77
2021/09/09 00:08:12;;;;;;;11.43;10.27;;;17.50;97.30;;;;;;5090343;28;20705;-78
2021/09/09 00:10:39;;;;;;;11.03;9.83;;;17.50;97.40;;;;;;5079836;28;20637;-77
2021/09/09 00:13:06;;;;;;;11.77;10.77;;;17.50;97.00;;;;;;5087917;28;20614;-77
2021/09/09 00:15:33;;;;;;;10.20;9.20;;;17.50;97.00;;;;;;5091483;28;20977;-78
2021/09/09 00:18:00;;;;;;;10.10;9.20;;;17.50;97.40;;;;;;5090442;28;20617;-78
2021/09/09 00:20:28;;;;;;;10.73;9.77;;;17.50;97.10;;;;;;5091152;28;20638;-77
2021/09/09 00:22:55;;;;;;;10.97;9.93;;;17.50;97.50;;;;;;5077852;28;20628;-78
2021/09/09 00:25:22;;;;;;;12.33;9.97;;;17.40;97.40;;;;;;5071414;28;20622;-78
2021/09/09 00:27:49;;;;;;;9.83;8.83;;;17.40;97.10;;;;;;5078024;28;20622;-77
2021/09/09 00:30:16;;;;;;;10.87;9.87;;;17.40;97.20;;;;;;5071037;28;21030;-79
2021/09/09 00:32:43;;;;;;;10.30;9.20;;;17.40;97.30;;;;;;5080253;28;20617;-77
2021/09/09 00:35:10;;;;;;;11.17;10.07;;;17.40;97.30;;;;;;5090044;28;20639;-77
2021/09/09 00:37:39;;;;;;;10.00;9.10;;;17.40;97.10;;;;;;5090277;28;20614;-77
2021/09/09 00:40:07;;;;;;;10.63;9.53;;;17.30;97.20;;;;;;5076907;28;21015;-78
2021/09/09 00:42:34;;;;;;;10.37;9.37;;;17.40;97.20;;;;;;5070216;28;21406;-77
2021/09/09 00:45:02;;;;;;;10.43;9.43;;;17.40;97.00;;;;;;5078937;28;21015;-78
2021/09/09 00:47:28;;;;;;;10.43;9.43;;;17.50;96.90;;;;;;5082864;28;20633;-77
2021/09/09 00:49:55;;;;;;;10.17;9.20;;;17.40;97.00;;;;;;5068924;28;20676;-77
2021/09/09 00:52:22;;;;;;;11.10;10.00;;;17.40;96.70;;;;;;5079191;28;20663;-77
2021/09/09 00:54:50;;;;;;;9.80;8.90;;;17.40;96.80;;;;;;5072806;28;20667;-77
2021/09/09 00:57:18;;;;;;;11.17;10.10;;;17.40;96.70;;;;;;5075413;28;20667;-78
2021/09/09 00:59:46;;;;;;;11.47;10.10;;;17.50;96.60;;;;;;5078128;28;21020;-77
2021/09/09 01:02:13;;;;;;;10.70;9.60;;;17.50;96.60;;;;;;5078422;28;20630;-77
2021/09/09 01:04:41;;;;;;;11.53;9.97;;;17.50;96.70;;;;;;5093086;28;20991;-77
2021/09/09 01:07:09;;;;;;;11.50;10.30;;;17.50;96.50;;;;;;5092755;28;20621;-77
2021/09/09 01:09:40;;;;;;;10.60;9.60;;;17.50;96.60;;;;;;5085179;28;20658;-77
2021/09/09 01:12:10;;;;;;;10.13;9.10;;;17.50;96.60;;;;;;5073106;28;20629;-77
2021/09/09 01:14:39;;;;;;;10.80;9.73;;;17.50;96.50;;;;;;5092478;28;20992;-80
2021/09/09 01:17:10;;;;;;;12.00;10.70;;;17.40;96.60;;;;;;5079688;28;20661;-77
2021/09/09 01:19:38;;;;;;;10.73;9.47;;;17.40;96.50;;;;;;5093482;28;20719;-77
2021/09/09 01:22:06;;;;;;;9.40;8.60;;;17.40;96.80;;;;;;5074445;28;21198;-77
2021/09/09 01:24:35;;;;;;;9.43;8.50;;;17.30;96.70;;;;;;5090575;28;20628;-77
2021/09/09 01:27:06;;;;;;;10.07;9.07;;;17.30;96.70;;;;;;5091002;28;20660;-77
2021/09/09 01:29:37;;;;;;;10.23;9.23;;;17.20;96.70;;;;;;5082383;28;20726;-77
2021/09/09 01:32:06;;;;;;;12.80;9.87;;;17.30;96.90;;;;;;5084489;28;20635;-78
2021/09/09 01:34:36;;;;;;;10.47;9.57;;;17.30;96.90;;;;;;5093402;28;20628;-77
2021/09/09 01:37:05;;;;;;;10.30;9.33;;;17.20;97.00;;;;;;5076054;28;20635;-77
2021/09/09 01:39:35;;;;;;;10.03;9.10;;;17.20;96.90;;;;;;5085457;28;20662;-77
2021/09/09 01:42:05;;;;;;;9.90;9.10;;;17.20;96.80;;;;;;5093329;28;20620;-78
2021/09/09 01:44:35;;;;;;;9.23;8.33;;;17.20;96.90;;;;;;5081454;28;20645;-78
2021/09/09 01:47:03;;;;;;;10.33;9.43;;;17.10;97.00;;;;;;5090905;28;20618;-77
2021/09/09 01:49:33;;;;;;;10.10;9.20;;;17.20;97.10;;;;;;5079015;28;21287;-77
2021/09/09 01:52:01;;;;;;;10.30;9.27;;;17.10;97.00;;;;;;5079324;28;20618;-77
2021/09/09 01:54:31;;;;;;;10.00;8.97;;;17.20;97.30;;;;;;5093919;28;21197;-77
2021/09/09 01:57:01;;;;;;;10.97;9.80;;;17.10;97.10;;;;;;5091121;28;21224;-77
2021/09/09 01:59:29;;;;;;;10.73;9.60;;;17.10;97.30;;;;;;5073873;28;20677;-77
2021/09/09 02:01:58;;;;;;;11.57;9.97;;;17.20;97.10;;;;;;5091697;28;20685;-78
2021/09/09 02:04:28;;;;;;;11.80;10.80;;;17.10;97.10;;;;;;5079686;28;21052;-77
2021/09/09 02:06:56;;;;;;;9.80;8.80;;;17.10;97.10;;;;;;5077788;28;20668;-77
2021/09/09 02:09:24;;;;;;;10.07;9.27;;;17.10;97.30;;;;;;5084592;28;20667;-78
2021/09/09 02:11:56;;;;;;;11.20;9.97;;;17.10;97.30;;;;;;5084599;28;20680;-77
2021/09/09 02:14:26;;;;;;;11.10;10.10;;;17.10;97.70;;;;;;5091601;28;20629;-80
2021/09/09 02:16:54;;;;;;;12.23;9.27;;;17.00;97.30;;;;;;5091599;28;20984;-79
2021/09/09 02:19:22;;;;;;;10.20;9.30;;;17.10;97.50;;;;;;5081951;28;21179;-79
2021/09/09 02:21:50;;;;;;;10.87;9.87;;;17.10;97.40;;;;;;5076098;28;20731;-80
2021/09/09 02:24:18;;;;;;;11.27;9.70;;;17.10;97.50;;;;;;5079526;28;20675;-80
2021/09/09 02:26:45;;;;;;;10.30;9.20;;;17.10;97.40;;;;;;5085232;28;20731;-79
2021/09/09 02:29:14;;;;;;;11.70;10.70;;;17.10;97.20;;;;;;5092952;28;20649;-80
2021/09/09 02:31:43;;;;;;;10.60;9.57;;;17.10;97.40;;;;;;5087249;28;20624;-79
2021/09/09 02:34:12;;;;;;;11.97;10.83;;;17.10;97.40;;;;;;5074117;28;20626;-79
2021/09/09 02:36:40;;;;;;;13.80;9.77;;;17.10;97.30;;;;;;5077696;28;20659;-79
2021/09/09 02:39:09;;;;;;;11.07;10.03;;;17.10;97.50;;;;;;5090201;28;21097;-79
2021/09/09 02:41:39;;;;;;;11.27;10.13;;;17.10;97.40;;;;;;5087559;28;20627;-79
2021/09/09 02:44:09;;;;;;;11.00;9.80;;;17.00;97.50;;;;;;5071911;28;20692;-80
2021/09/09 02:46:38;;;;;;;11.33;10.27;;;17.00;97.70;;;;;;5089025;28;20626;-79
2021/09/09 02:49:08;;;;;;;10.50;9.40;;;17.00;97.60;;;;;;5081217;28;20618;-78
2021/09/09 02:51:35;;;;;;;12.50;11.00;;;17.00;97.70;;;;;;5075846;28;20644;-79
2021/09/09 02:54:02;;;;;;;10.63;9.63;;;17.00;97.80;;;;;;5078321;28;20616;-79
2021/09/09 02:56:31;;;;;;;10.60;9.50;;;16.90;97.60;;;;;;5072268;28;20627;-79
2021/09/09 02:58:58;;;;;;;11.20;10.00;;;17.00;97.70;;;;;;5077280;28;20678;-79
2021/09/09 03:01:25;;;;;;;10.87;9.97;;;16.90;97.80;;;;;;5092014;28;20937;-79
2021/09/09 03:03:52;;;;;;;10.03;9.00;;;16.90;97.90;;;;;;5073643;28;20624;-79
2021/09/09 03:06:20;;;;;;;11.77;10.70;;;16.90;97.90;;;;;;5084504;28;20609;-79
2021/09/09 03:08:47;;;;;;;10.77;9.77;;;16.90;97.90;;;;;;5094064;28;20618;-79
2021/09/09 03:11:14;;;;;;;12.03;10.93;;;16.90;97.80;;;;;;5072762;28;20653;-79
2021/09/09 03:13:41;;;;;;;11.93;10.77;;;16.90;97.90;;;;;;5080937;28;20637;-79
2021/09/09 03:16:08;;;;;;;11.83;10.63;;;16.90;97.90;;;;;;5071956;28;20733;-79
2021/09/09 03:18:35;;;;;;;10.90;9.90;;;16.80;98.00;;;;;;5080134;28;21159;-79
2021/09/09 03:21:02;;;;;;;10.70;9.80;;;16.80;97.90;;;;;;5090463;28;20633;-79
2021/09/09 03:23:30;;;;;;;11.27;10.23;;;16.80;98.20;;;;;;5081549;28;20629;-79
2021/09/09 03:25:57;;;;;;;10.60;9.60;;;16.80;98.10;;;;;;5080086;28;20618;-79
2021/09/09 03:28:24;;;;;;;13.40;12.10;;;16.70;98.20;;;;;;5071822;28;20611;-79
2021/09/09 03:30:51;;;;;;;12.60;11.40;;;16.80;98.10;;;;;;5081575;28;20706;-79
2021/09/09 03:33:18;;;;;;;12.40;11.20;;;16.80;98.20;;;;;;5082859;28;20650;-79
2021/09/09 03:36:08;;;;;;;12.13;10.90;;;16.70;98.10;;;;;;5079352;28;20624;-79
2021/09/09 03:38:39;;;;;;;11.07;10.07;;;16.70;98.40;;;;;;5082081;28;20637;-80
2021/09/09 03:41:11;;;;;;;11.07;9.97;;;16.70;98.60;;;;;;5076961;28;20876;-80
2021/09/09 03:43:38;;;;;;;11.73;10.63;;;16.70;98.70;;;;;;5088022;28;21155;-79
2021/09/09 03:46:06;;;;;;;11.63;10.43;;;16.70;98.80;;;;;;5080826;28;21500;-79
2021/09/09 03:48:33;;;;;;;11.07;10.07;;;16.50;99.20;;;;;;5084018;28;21233;-79
2021/09/09 03:51:00;;;;;;;11.63;10.60;;;16.50;99.10;;;;;;5085962;28;20799;-79
2021/09/09 03:53:27;;;;;;;11.80;10.70;;;16.50;99.00;;;;;;5085371;28;20663;-79
2021/09/09 03:55:55;;;;;;;12.97;10.80;;;16.50;99.10;;;;;;5084171;28;20943;-79
2021/09/09 03:58:22;;;;;;;12.27;11.07;;;16.50;99.00;;;;;;5072767;28;20688;-79
2021/09/09 04:00:49;;;;;;;11.80;10.80;;;16.50;99.00;;;;;;5083990;28;20668;-79
2021/09/09 04:03:16;;;;;;;12.80;9.67;;;16.50;99.30;;;;;;5084875;28;21189;-79
2021/09/09 04:05:43;;;;;;;12.97;9.83;;;16.50;98.90;;;;;;5073929;28;20617;-79
2021/09/09 04:08:10;;;;;;;11.00;10.00;;;16.50;98.90;;;;;;5082839;28;20657;-79
2021/09/09 04:10:37;;;;;;;13.30;10.47;;;16.50;99.10;;;;;;5082820;28;20745;-79
2021/09/09 04:13:05;;;;;;;10.73;9.60;;;16.50;99.00;;;;;;5083624;28;20638;-78
2021/09/09 04:15:32;;;;;;;11.90;10.70;;;16.60;99.00;;;;;;5090607;28;20674;-79
2021/09/09 04:18:00;;;;;;;11.77;10.60;;;16.50;99.00;;;;;;5085769;28;20634;-79
2021/09/09 04:20:27;;;;;;;11.90;10.33;;;16.50;98.90;;;;;;5076943;28;20647;-79
2021/09/09 04:22:54;;;;;;;11.40;10.40;;;16.60;99.40;;;;;;5083390;28;20744;-79
2021/09/09 04:25:21;;;;;;;11.77;10.57;;;16.50;99.00;;;;;;5083806;28;20640;-79
2021/09/09 04:27:48;;;;;;;11.10;9.90;;;16.50;99.00;;;;;;5073978;28;20633;-79
2021/09/09 04:30:16;;;;;;;12.63;11.33;;;16.50;98.90;;;;;;5089791;28;20635;-79
2021/09/09 04:32:43;;;;;;;10.83;9.80;;;16.50;99.00;;;;;;5078958;28;20621;-79
2021/09/09 04:35:10;;;;;;;13.10;10.83;;;16.60;98.90;;;;;;5075110;28;20648;-79
2021/09/09 04:37:38;;;;;;;12.10;10.90;;;16.60;98.70;;;;;;5085155;28;20657;-79
2021/09/09 04:40:06;;;;;;;11.20;10.10;;;16.60;98.80;;;;;;5071662;28;20679;-79
2021/09/09 04:42:33;;;;;;;13.20;9.80;;;16.50;98.70;;;;;;5079468;28;20643;-79
2021/09/09 04:45:00;;;;;;;12.93;11.60;;;16.50;99.10;;;;;;5086024;28;20718;-79
2021/09/09 04:47:28;;;;;;;12.13;11.03;;;16.50;99.40;;;;;;5070772;28;21180;-79
2021/09/09 04:49:55;;;;;;;10.90;9.80;;;16.50;99.60;;;;;;5072100;28;20644;-78
2021/09/09 04:52:22;;;;;;;12.13;10.93;;;16.50;99.30;;;;;;5074743;28;20654;-79
2021/09/09 04:54:49;;;;;;;12.40;11.27;;;16.50;99.40;;;;;;5089467;28;20720;-79
2021/09/09 04:57:16;;;;;;;12.37;11.07;;;16.40;99.40;;;;;;5070713;28;20659;-79
2021/09/09 04:59:42;;;;;;;11.97;10.77;;;16.50;99.30;;;;;;5079936;28;20618;-79
2021/09/09 05:02:09;;;;;;;11.83;10.77;;;16.50;99.30;;;;;;5089622;28;20615;-79
2021/09/09 05:04:39;;;;;;;13.43;12.13;;;16.50;99.30;;;;;;5079520;28;20630;-79
2021/09/09 05:07:06;;;;;;;10.13;9.10;;;16.50;99.10;;;;;;5070494;28;20636;-79
2021/09/09 05:09:32;;;;;;;11.27;10.07;;;16.60;99.10;;;;;;5077670;28;20666;-79
2021/09/09 05:11:59;;;;;;;12.83;11.53;;;16.50;99.20;;;;;;5087227;28;20950;-79
2021/09/09 05:14:26;;;;;;;15.87;11.40;;;16.50;99.40;;;;;;5067101;28;20649;-79
2021/09/09 05:16:53;;;;;;;11.50;10.40;;;16.50;99.30;;;;;;5070412;28;20654;-79
2021/09/09 05:19:20;;;;;;;12.37;11.13;;;16.60;99.30;;;;;;5089346;28;20620;-79
2021/09/09 05:21:48;;;;;;;11.57;10.47;;;16.60;99.00;;;;;;5082883;28;20700;-79
2021/09/09 05:24:15;;;;;;;11.13;10.10;;;16.60;99.40;;;;;;5090162;28;20616;-79
2021/09/09 05:26:42;;;;;;;11.57;10.43;;;16.70;99.50;;;;;;5081853;28;20621;-79
2021/09/09 05:29:09;;;;;;;14.13;10.40;;;16.70;98.90;;;;;;5082438;28;20625;-79
2021/09/09 05:31:36;;;;;;;12.30;11.00;;;16.70;99.00;;;;;;5080450;28;20653;-79
2021/09/09 05:34:15;;;;;;;12.00;10.80;;;16.80;99.00;;;;;;5070438;28;20618;-79
2021/09/09 05:36:41;;;;;;;11.97;10.70;;;16.80;98.90;;;;;;5087214;28;20643;-77
2021/09/09 05:39:10;;;;;;;11.87;10.77;;;16.90;98.70;;;;;;5079744;28;20621;-79
2021/09/09 05:41:46;;;;;;;14.07;11.10;;;17.00;98.50;;;;;;5070175;28;20671;-79
2021/09/09 05:44:13;;;;;;;11.77;10.67;;;17.10;98.90;;;;;;5077668;28;20691;-79
2021/09/09 05:46:52;;;;;;;11.63;10.37;;;17.20;98.50;;;;;;5088610;28;20713;-79
2021/09/09 05:49:22;;;;;;;11.20;10.10;;;17.30;98.20;;;;;;5086952;28;21427;-80
2021/09/09 05:51:49;;;;;;;12.50;11.20;;;17.30;98.10;;;;;;5086069;28;20738;-79
2021/09/09 05:54:17;;;;;;;12.10;10.80;;;17.40;98.10;;;;;;5085927;28;20687;-80
2021/09/09 05:56:44;;;;;;;12.00;10.90;;;17.50;97.80;;;;;;5087348;28;21110;-79
2021/09/09 05:59:11;;;;;;;11.40;10.30;;;17.60;97.60;;;;;;5093421;28;20625;-79
2021/09/09 06:01:38;;;;;;;10.13;9.20;;;17.60;97.60;;;;;;5086746;28;21013;-79
2021/09/09 06:04:08;;;;;;;10.60;9.60;;;17.60;98.10;;;;;;5089834;28;20618;-79
2021/09/09 06:06:35;;;;;;;13.17;10.53;;;17.60;98.60;;;;;;5090515;28;20622;-79
2021/09/09 06:09:04;;;;;;;10.87;9.90;;;17.60;98.40;;;;;;5089117;28;20649;-79
2021/09/09 06:11:32;;;;;;;11.60;10.50;;;17.60;98.20;;;;;;5086626;28;20671;-79
2021/09/09 06:14:00;;;;;;;12.63;10.20;;;17.70;97.70;;;;;;5087552;28;20969;-80
2021/09/09 06:16:27;;;;;;;13.07;11.37;;;17.80;97.10;;;;;;5092017;28;20625;-80
2021/09/09 06:18:54;;;;;;;13.10;10.60;;;18.10;96.50;;;;;;5089529;28;21299;-80
2021/09/09 06:21:21;;;;;;;18.03;10.40;;;18.10;96.60;;;;;;5092663;28;20730;-80
2021/09/09 06:23:48;;;;;;;12.47;10.30;;;18.20;96.90;;;;;;5089654;28;21171;-80
2021/09/09 06:26:15;;;;;;;18.80;11.17;;;18.20;96.70;;;;;;5090476;28;21020;-80
2021/09/09 06:28:43;;;;;;;13.30;11.90;;;18.30;96.40;;;;;;5088981;28;20718;-80
2021/09/09 06:31:10;;;;;;;13.53;10.33;;;18.30;96.70;;;;;;5088055;28;20655;-80
2021/09/09 06:33:37;;;;;;;11.40;9.60;;;18.40;97.00;;;;;;5091036;28;20658;-77
2021/09/09 06:36:05;;;;;;;10.83;9.77;;;18.30;96.60;;;;;;5091153;28;20672;-80
2021/09/09 06:38:32;;;;;;;10.77;9.80;;;18.50;96.70;;;;;;5091868;28;20627;-80
2021/09/09 06:40:59;;;;;;;11.77;9.53;;;18.70;96.50;;;;;;5090340;28;20611;-80
2021/09/09 06:43:26;;;;;;;13.00;10.13;;;18.70;96.30;;;;;;5087216;28;20680;-80
2021/09/09 06:45:55;;;;;;;11.10;10.00;;;18.70;96.60;;;;;;5086160;28;20627;-79
2021/09/09 06:48:22;;;;;;;9.70;8.90;;;18.80;96.50;;;;;;5084882;28;20724;-79
2021/09/09 06:50:49;;;;;;;13.87;12.30;;;18.80;96.60;;;;;;5090684;28;20650;-80
2021/09/09 06:53:16;;;;;;;10.63;9.73;;;18.90;96.80;;;;;;5087674;28;20632;-79
2021/09/09 06:55:42;;;;;;;10.50;9.60;;;19.00;97.00;;;;;;5091648;28;20617;-79
2021/09/09 06:58:09;;;;;;;12.43;10.30;;;19.10;96.70;;;;;;5089760;28;20609;-79
2021/09/09 07:00:36;;;;;;;11.90;10.80;;;19.20;96.30;;;;;;5089752;28;20648;-80
2021/09/09 07:03:05;;;;;;;10.50;9.50;;;19.50;95.60;;;;;;5087822;28;20723;-80
2021/09/09 07:05:31;;;;;;;10.33;9.43;;;19.40;96.50;;;;;;5085462;28;20693;-80
2021/09/09 07:07:58;;;;;;;9.93;9.13;;;19.50;95.60;;;;;;5091645;28;20673;-79
2021/09/09 07:10:25;;;;;;;19.80;17.87;;;19.60;95.60;;;;;;5090364;28;20670;-78
2021/09/09 07:12:52;;;;;;;18.60;16.53;;;19.70;95.70;;;;;;5089380;28;21197;-79
2021/09/09 07:15:19;;;;;;;12.50;11.27;;;19.60;96.00;;;;;;5089029;28;20677;-79
2021/09/09 07:17:46;;;;;;;10.73;9.73;;;19.70;96.20;;;;;;5088468;28;20727;-79
2021/09/09 07:20:15;;;;;;;14.23;9.20;;;19.90;95.90;;;;;;5090201;28;20652;-79
2021/09/09 07:22:42;;;;;;;11.00;10.00;;;20.00;95.10;;;;;;5086673;28;20675;-79
2021/09/09 07:25:10;;;;;;;10.40;9.40;;;20.20;95.10;;;;;;5090903;28;21220;-79
2021/09/09 07:27:37;;;;;;;11.03;9.93;;;20.40;95.10;;;;;;5082252;28;20623;-78
2021/09/09 07:30:06;;;;;;;11.93;10.80;;;20.40;95.00;;;;;;5092062;28;21173;-79
2021/09/09 07:32:33;;;;;;;11.40;10.47;;;20.50;94.70;;;;;;5081058;28;20652;-79
2021/09/09 07:35:00;;;;;;;10.80;9.80;;;20.50;94.30;;;;;;5091671;28;20641;-79
2021/09/09 07:37:29;;;;;;;11.90;10.73;;;20.60;94.40;;;;;;5091691;28;21008;-79
2021/09/09 07:39:56;;;;;;;12.87;11.23;;;20.50;94.40;;;;;;5088135;28;20678;-79
2021/09/09 07:42:23;;;;;;;11.77;10.43;;;20.70;93.70;;;;;;5080642;28;20670;-79
2021/09/09 07:44:50;;;;;;;10.90;9.90;;;20.80;93.90;;;;;;5086498;28;20733;-79
2021/09/09 07:47:17;;;;;;;12.77;10.10;;;20.90;93.40;;;;;;5084795;28;20608;-76
2021/09/09 07:49:44;;;;;;;10.83;9.93;;;21.20;92.80;;;;;;5071636;28;20686;-77
2021/09/09 07:52:11;;;;;;;9.80;8.90;;;21.30;92.60;;;;;;5078823;28;20644;-79
2021/09/09 07:54:39;;;;;;;9.70;8.80;;;21.50;92.50;;;;;;5087682;28;20981;-79
2021/09/09 07:57:06;;;;;;;11.03;9.60;;;21.80;92.40;;;;;;5088707;28;20615;-78
2021/09/09 07:59:34;;;;;;;10.17;9.27;;;22.00;91.70;;;;;;5080697;28;20624;-78
2021/09/09 08:04:53;;;;;;;10.70;9.80;;;22.00;91.50;;;;;;5083190;28;20618;-80
2021/09/09 08:07:25;;;;;;;10.60;9.70;;;22.00;91.30;;;;;;5074869;28;20670;-80
2021/09/09 08:09:54;;;;;;;10.37;9.40;;;21.90;91.10;;;;;;5075616;28;21201;-80
2021/09/09 08:12:21;;;;;;;11.03;9.93;;;22.00;91.70;;;;;;5080336;28;20708;-80
2021/09/09 08:14:47;;;;;;;10.60;9.70;;;22.10;91.10;;;;;;5085625;28;21206;-80
2021/09/09 08:17:15;;;;;;;9.93;9.03;;;22.10;90.50;;;;;;5090121;28;20678;-79
2021/09/09 08:20:07;;;;;;;10.03;9.10;;;22.00;90.60;;;;;;5084907;28;20713;-80
2021/09/09 08:22:44;;;;;;;12.50;9.40;;;22.00;90.60;;;;;;5083504;28;20618;-81
2021/09/09 08:25:13;;;;;;;10.23;9.27;;;22.20;89.40;;;;;;5087344;28;20630;-80
2021/09/09 08:27:40;;;;;;;9.70;8.80;;;22.00;90.00;;;;;;5090706;28;20631;-81
2021/09/09 08:30:08;;;;;;;12.30;8.53;;;22.10;90.10;;;;;;5090700;28;21174;-78
2021/09/09 08:32:35;;;;;;;9.97;9.17;;;22.00;91.00;;;;;;5081917;28;20748;-78
2021/09/09 08:35:02;;;;;;;9.20;8.40;;;22.00;90.20;;;;;;5090550;28;20703;-78
2021/09/09 08:37:29;;;;;;;8.70;8.00;;;22.00;90.10;;;;;;5089978;28;21015;-78
2021/09/09 08:39:58;;;;;;;10.63;9.27;;;22.00;90.70;;;;;;5091152;28;20636;-78
2021/09/09 08:42:27;;;;;;;9.03;8.20;;;22.00;90.40;;;;;;5087702;28;20655;-78
2021/09/09 08:44:54;;;;;;;9.47;8.67;;;22.30;90.10;;;;;;5091177;28;20666;-77
2021/09/09 08:47:24;;;;;;;9.67;8.47;;;22.30;89.70;;;;;;5090934;28;20620;-78
2021/09/09 08:49:51;;;;;;;9.57;8.70;;;22.30;90.30;;;;;;5090022;28;20618;-78
2021/09/09 08:52:18;;;;;;;8.23;7.60;;;22.40;89.50;;;;;;5082316;28;20672;-77
2021/09/09 08:54:45;;;;;;;8.53;7.83;;;22.50;88.10;;;;;;5083076;28;20620;-78
2021/09/09 08:57:12;;;;;;;9.03;7.93;;;22.60;86.70;;;;;;5089756;28;20624;-78
2021/09/09 08:59:40;;;;;;;9.07;8.33;;;22.70;87.70;;;;;;5090179;28;20686;-78
2021/09/09 09:02:08;;;;;;;9.30;8.50;;;22.90;87.50;;;;;;5084892;28;21089;-78
2021/09/09 09:07:59;;;;;;;9.60;8.17;;;23.20;87.10;;;;;;5083432;28;20637;-80
2021/09/09 09:10:26;;;;;;;8.67;7.97;;;23.40;87.30;;;;;;5078929;28;21516;-77
2021/09/09 09:12:53;;;;;;;9.43;8.57;;;23.30;87.40;;;;;;5105012;28;20662;-79
2021/09/09 09:15:24;;;;;;;9.30;8.60;;;23.20;87.30;;;;;;5092320;28;20674;-78
2021/09/09 09:18:01;;;;;;;9.60;8.70;;;23.40;87.30;;;;;;5086353;28;20629;-79
2021/09/09 09:20:43;;;;;;;9.43;8.63;;;23.70;84.00;;;;;;5092313;28;20619;-78
2021/09/09 09:23:12;;;;;;;9.67;8.13;;;23.90;85.00;;;;;;5088755;28;20624;-78
2021/09/09 09:25:56;;;;;;;9.03;8.30;;;23.80;84.10;;;;;;5094531;28;20612;-79
2021/09/09 09:28:41;;;;;;;9.27;8.40;;;23.70;84.20;;;;;;5084772;28;20657;-79
2021/09/09 09:31:12;;;;;;;10.53;8.57;;;23.60;84.50;;;;;;5090722;28;21244;-79
2021/09/09 09:34:17;;;;;;;9.27;8.37;;;23.60;85.70;;;;;;5092888;28;20645;-80
2021/09/09 09:36:44;;;;;;;10.10;9.10;;;23.70;86.30;;;;;;5072944;28;20636;-79
2021/09/09 09:39:13;;;;;;;8.53;7.83;;;23.50;83.70;;;;;;5090676;28;20664;-79
2021/09/09 09:41:42;;;;;;;10.93;8.43;;;23.50;85.90;;;;;;5080590;28;20744;-79
2021/09/09 09:44:13;;;;;;;9.17;8.47;;;23.40;87.40;;;;;;5091581;28;20612;-79
2021/09/09 09:46:42;;;;;;;9.07;8.33;;;23.30;86.70;;;;;;5073927;28;20640;-79
2021/09/09 09:49:28;;;;;;;9.57;8.70;;;23.60;85.90;;;;;;5090025;28;20648;-78
2021/09/09 09:51:57;;;;;;;8.80;8.00;;;23.60;85.90;;;;;;5092395;28;20736;-79
2021/09/09 09:54:25;;;;;;;9.80;9.00;;;23.50;84.60;;;;;;5088777;28;20645;-79
2021/09/09 09:56:53;;;;;;;9.77;8.87;;;23.50;84.70;;;;;;5081367;28;20653;-78
2021/09/09 09:59:21;;;;;;;12.40;11.23;;;23.50;87.00;;;;;;5082128;28;20624;-80
2021/09/09 10:01:49;;;;;;;11.63;9.73;;;23.70;85.90;;;;;;5093147;28;20623;-80
2021/09/09 10:04:21;;;;;;;9.60;8.87;;;23.80;85.60;;;;;;5092632;28;20616;-81
2021/09/09 10:06:52;;;;;;;10.17;8.90;;;24.20;86.10;;;;;;5092071;28;20642;-80
2021/09/09 10:09:19;;;;;;;8.47;7.77;;;24.40;82.30;;;;;;5087703;28;20686;-79
2021/09/09 10:11:46;;;;;;;8.90;8.00;;;24.60;84.30;;;;;;5091491;28;20655;-79
2021/09/09 10:14:24;;;;;;;8.40;7.70;;;24.70;83.40;;;;;;5091177;28;20621;-79
2021/09/09 10:16:56;;;;;;;9.20;8.50;;;25.00;82.10;;;;;;5092360;28;20615;-79
2021/09/09 10:19:25;;;;;;;9.23;8.30;;;24.70;80.20;;;;;;5072790;28;20686;-79
2021/09/09 10:22:02;;;;;;;9.10;7.50;;;24.60;81.10;;;;;;5088106;28;20640;-79
2021/09/09 10:24:30;;;;;;;8.43;7.73;;;24.70;82.40;;;;;;5092778;28;20616;-79
2021/09/09 10:27:16;;;;;;;7.80;7.00;;;24.70;83.20;;;;;;5092412;28;20621;-79
2021/09/09 10:29:48;;;;;;;8.53;7.90;;;24.80;81.40;;;;;;5093450;28;20611;-79
2021/09/09 10:32:57;;;;;;;9.60;7.70;;;25.00;79.60;;;;;;5079776;28;20668;-79
2021/09/09 10:35:30;;;;;;;8.20;7.07;;;25.00;80.80;;;;;;5087275;28;21248;-79
2021/09/09 10:37:59;;;;;;;9.07;7.57;;;25.20;81.40;;;;;;5092306;28;20723;-79
2021/09/09 10:40:33;;;;;;;7.90;7.30;;;25.30;79.00;;;;;;5092682;28;20971;-79
2021/09/09 10:43:01;;;;;;;8.10;7.40;;;25.40;78.50;;;;;;5077477;28;20652;-79
2021/09/09 10:45:46;;;;;;;7.97;7.27;;;25.40;78.00;;;;;;5074460;28;20649;-79
2021/09/09 10:48:22;;;;;;;8.30;7.07;;;25.50;77.10;;;;;;5083433;28;20671;-79
2021/09/09 10:51:00;;;;;;;7.40;6.70;;;25.60;78.60;;;;;;5072551;28;20644;-79
2021/09/09 10:53:35;;;;;;;6.40;5.83;;;25.60;77.00;;;;;;5074116;28;21013;-78
2021/09/09 10:56:09;;;;;;;7.30;6.80;;;25.70;77.50;;;;;;5091592;28;21290;-79
2021/09/09 10:58:36;;;;;;;7.47;6.87;;;25.80;77.30;;;;;;5088802;28;20671;-79
2021/09/09 11:01:05;;;;;;;7.17;6.47;;;25.70;77.90;;;;;;5091223;28;20719;-79
2021/09/09 11:03:38;;;;;;;6.40;5.90;;;25.90;76.10;;;;;;5071011;28;21217;-79
2021/09/09 11:06:06;;;;;;;7.17;6.57;;;26.00;75.70;;;;;;5090819;28;20632;-79
2021/09/09 11:08:33;;;;;;;6.77;6.27;;;26.10;74.40;;;;;;5088952;28;20686;-79
2021/09/09 11:11:00;;;;;;;6.70;6.27;;;26.10;74.20;;;;;;5078408;28;20621;-80
2021/09/09 11:13:29;;;;;;;8.50;5.73;;;26.20;73.90;;;;;;5088042;28;20660;-78
2021/09/09 11:15:57;;;;;;;7.97;6.97;;;25.80;73.70;;;;;;5087090;28;21011;-78
2021/09/09 11:18:25;;;;;;;6.47;5.83;;;25.80;76.10;;;;;;5088730;28;20702;-79
2021/09/09 11:21:03;;;;;;;7.63;6.93;;;26.00;78.10;;;;;;5081062;28;20699;-78
2021/09/09 11:23:31;;;;;;;7.20;6.70;;;26.20;73.90;;;;;;5091163;28;20608;-79
2021/09/09 11:26:10;;;;;;;5.70;5.30;;;26.40;73.50;;;;;;5090565;28;20666;-79
2021/09/09 11:28:38;;;;;;;7.40;6.63;;;26.60;71.90;;;;;;5089429;28;20620;-79
2021/09/09 11:31:10;;;;;;;8.13;6.40;;;26.60;70.80;;;;;;5090456;28;20629;-79
2021/09/09 11:33:48;;;;;;;6.53;6.03;;;26.80;69.50;;;;;;5089475;28;20667;-79
2021/09/09 11:36:17;;;;;;;6.27;5.70;;;26.90;70.70;;;;;;5086572;28;21164;-79
2021/09/09 11:38:44;;;;;;;7.00;6.37;;;26.90;69.00;;;;;;5088724;28;21021;-79
2021/09/09 11:41:12;;;;;;;6.57;5.97;;;26.70;70.00;;;;;;5091478;28;20644;-79
2021/09/09 11:43:40;;;;;;;6.37;5.80;;;26.80;68.90;;;;;;5087269;28;20667;-79
2021/09/09 11:46:07;;;;;;;6.20;5.60;;;26.90;69.20;;;;;;5091677;28;21279;-79
2021/09/09 11:48:34;;;;;;;7.90;5.67;;;26.90;70.60;;;;;;5072694;28;20656;-79
2021/09/09 11:51:01;;;;;;;6.97;6.47;;;26.90;69.50;;;;;;5088399;28;20621;-79
2021/09/09 11:53:29;;;;;;;6.27;5.80;;;26.90;71.80;;;;;;5089065;28;20738;-79
2021/09/09 11:55:56;;;;;;;6.80;6.27;;;26.80;70.90;;;;;;5077855;28;20657;-79
2021/09/09 11:58:37;;;;;;;7.40;6.70;;;26.40;70.80;;;;;;5090702;28;21185;-80
2021/09/09 12:01:06;;;;;;;9.00;6.53;;;26.10;70.40;;;;;;5090388;28;20624;-79
2021/09/09 12:03:35;;;;;;;7.67;6.97;;;25.90;72.40;;;;;;5086300;28;20648;-79
2021/09/09 12:06:03;;;;;;;8.13;7.33;;;25.80;73.10;;;;;;5089560;28;21199;-79
2021/09/09 12:08:35;;;;;;;7.20;6.33;;;25.90;72.20;;;;;;5089960;28;20613;-80
2021/09/09 12:11:12;;;;;;;6.80;6.20;;;26.00;71.90;;;;;;5089966;28;20678;-79
2021/09/09 12:13:40;;;;;;;8.17;7.37;;;26.20;68.50;;;;;;5069842;28;20652;-80
2021/09/09 12:16:51;;;;;;;8.90;6.97;;;26.10;69.10;;;;;;5085660;28;21201;-80
2021/09/09 12:19:20;;;;;;;7.70;7.10;;;26.20;71.10;;;;;;5082305;28;21003;-81
2021/09/09 12:21:53;;;;;;;6.90;6.40;;;26.30;70.30;;;;;;5089057;28;20633;-80
2021/09/09 12:24:29;;;;;;;9.93;6.80;;;26.40;71.30;;;;;;5088344;28;20621;-80
2021/09/09 12:27:18;;;;;;;7.27;6.60;;;26.30;69.80;;;;;;5087458;28;20673;-81
2021/09/09 12:29:47;;;;;;;7.63;6.30;;;26.40;67.80;;;;;;5085174;28;20694;-80
2021/09/09 12:32:27;;;;;;;7.50;6.77;;;26.50;66.20;;;;;;5081335;28;20693;-80
2021/09/09 12:35:09;;;;;;;7.63;6.87;;;26.40;67.50;;;;;;5088868;28;21128;-80
2021/09/09 12:37:36;;;;;;;7.83;7.10;;;26.10;71.40;;;;;;5086332;28;20621;-80
2021/09/09 12:40:10;;;;;;;6.77;6.27;;;26.40;68.60;;;;;;5084223;28;21148;-79
2021/09/09 12:42:38;;;;;;;7.50;6.90;;;26.50;68.20;;;;;;5066881;28;20751;-80
2021/09/09 12:45:09;;;;;;;6.73;6.23;;;26.60;67.90;;;;;;5070647;28;21162;-79
2021/09/09 12:47:36;;;;;;;7.03;6.50;;;26.60;67.40;;;;;;5070820;28;20613;-79
2021/09/09 12:50:31;;;;;;;6.73;6.10;;;26.90;65.50;;;;;;5082543;28;20613;-79
2021/09/09 12:52:58;;;;;;;7.27;6.67;;;27.10;64.60;;;;;;5081562;28;20736;-80
2021/09/09 12:55:27;;;;;;;7.50;6.80;;;27.00;66.00;;;;;;5088357;28;20642;-79